Time;durP1;ratioP1;P1;durP2;ratioP2;P2;SDS_P1;SDS_P2;PMS_P1;PMS_P2;Temp;Humidity;BMP_temperature;BMP_pressure;BME280_temperature;BME280_humidity;BME280_pressure;Samples;Min_cycle;Max_cycle;Signal;HPM_P1;HPM_P2
2021/07/17 00:02:14;;;;;;;18.10;13.88;;;;;;;23.33;74.43;100256.92;1770837;80;21247;-59
2021/07/17 00:05:23;;;;;;;18.00;14.18;;;;;;;23.29;74.47;100257.13;1770937;81;21335;-59
2021/07/17 00:08:28;;;;;;;16.12;13.85;;;;;;;23.22;74.54;100254.22;1764268;80;21228;-59
2021/07/17 00:11:35;;;;;;;17.27;14.30;;;;;;;23.18;74.84;100257.27;1771011;80;21182;-58
2021/07/17 00:14:40;;;;;;;15.72;14.00;;;;;;;23.13;75.05;100262.78;1771041;80;21220;-58
2021/07/17 00:17:47;;;;;;;15.38;13.38;;;;;;;23.09;75.30;100260.20;1770732;81;21336;-58
2021/07/17 00:20:54;;;;;;;17.90;13.83;;;;;;;23.06;75.55;100256.53;1770535;81;21291;-59
2021/07/17 00:23:59;;;;;;;18.35;13.98;;;;;;;23.03;75.55;100263.50;1770686;81;21209;-59
2021/07/17 00:27:06;;;;;;;17.55;13.72;;;;;;;23.04;75.50;100260.16;1771458;80;21228;-59
2021/07/17 00:30:12;;;;;;;17.32;14.47;;;;;;;23.04;75.41;100255.41;1770741;81;21181;-58
2021/07/17 00:33:17;;;;;;;17.20;14.60;;;;;;;23.05;75.45;100256.26;1770873;81;21329;-58
2021/07/17 00:36:23;;;;;;;19.90;13.72;;;;;;;23.05;75.51;100254.31;1770868;81;22155;-58
2021/07/17 00:39:30;;;;;;;17.23;14.55;;;;;;;23.05;75.54;100253.46;1770739;81;21248;-58
2021/07/17 00:42:38;;;;;;;20.32;13.62;;;;;;;23.02;75.54;100249.25;1770600;81;21788;-60
2021/07/17 00:45:44;;;;;;;17.57;13.85;;;;;;;23.00;75.59;100243.08;1783792;79;21748;-58
2021/07/17 00:48:48;;;;;;;15.18;13.60;;;;;;;22.98;75.67;100242.48;1794580;79;21366;-58
2021/07/17 00:51:56;;;;;;;15.63;13.72;;;;;;;22.97;75.68;100245.00;1802278;79;21868;-59
2021/07/17 00:55:01;;;;;;;19.23;13.75;;;;;;;22.97;75.77;100236.62;1801597;79;21319;-58
2021/07/17 00:58:07;;;;;;;15.53;13.78;;;;;;;22.99;75.84;100240.55;1801803;79;21705;-58
2021/07/17 01:01:12;;;;;;;18.20;14.70;;;;;;;22.97;76.00;100238.56;1801255;79;21346;-59
2021/07/17 01:04:18;;;;;;;15.43;13.20;;;;;;;22.97;75.88;100246.94;1801455;79;21221;-58
2021/07/17 01:07:25;;;;;;;16.80;13.95;;;;;;;22.95;75.85;100237.42;1794676;79;21700;-58
2021/07/17 01:10:30;;;;;;;17.98;14.30;;;;;;;22.95;76.04;100241.61;1802194;79;21304;-58
2021/07/17 01:13:35;;;;;;;15.65;13.70;;;;;;;22.93;76.09;100233.22;1802599;79;21205;-58
2021/07/17 01:16:41;;;;;;;16.48;13.53;;;;;;;22.86;76.09;100229.22;1802182;79;21185;-58
2021/07/17 01:19:48;;;;;;;18.70;14.38;;;;;;;22.81;76.26;100224.11;1802031;79;21312;-58
2021/07/17 01:22:55;;;;;;;17.67;15.70;;;;;;;22.74;76.74;100216.49;1801951;79;21406;-58
2021/07/17 01:26:00;;;;;;;21.57;15.28;;;;;;;22.70;77.35;100233.45;1802528;79;21363;-59
2021/07/17 01:29:07;;;;;;;21.62;15.45;;;;;;;22.68;77.66;100227.27;1802928;78;21255;-58
2021/07/17 01:32:13;;;;;;;18.40;14.90;;;;;;;22.67;78.06;100226.98;1801790;79;21355;-58
2021/07/17 01:35:20;;;;;;;17.15;15.30;;;;;;;22.63;78.19;100227.23;1802118;79;21190;-60
2021/07/17 01:38:25;;;;;;;23.22;15.58;;;;;;;22.57;78.35;100225.45;1802042;79;21714;-59
2021/07/17 01:41:31;;;;;;;16.75;14.70;;;;;;;22.53;78.71;100221.49;1794195;79;21332;-57
2021/07/17 01:44:35;;;;;;;23.40;14.83;;;;;;;22.50;78.87;100215.83;1802086;79;21375;-57
2021/07/17 01:47:41;;;;;;;20.37;15.45;;;;;;;22.49;78.91;100220.27;1802416;79;21919;-58
2021/07/17 01:50:47;;;;;;;16.90;14.60;;;;;;;22.46;78.86;100220.25;1802395;79;21395;-58
2021/07/17 01:53:55;;;;;;;19.30;15.08;;;;;;;22.44;78.89;100220.22;1765213;80;21328;-58
2021/07/17 01:56:59;;;;;;;17.07;14.85;;;;;;;22.41;78.83;100222.10;1770487;81;21731;-58
2021/07/17 02:00:05;;;;;;;20.68;15.50;;;;;;;22.40;78.70;100219.03;1770905;81;21249;-58
2021/07/17 02:03:11;;;;;;;19.32;16.10;;;;;;;22.40;78.61;100223.22;1770989;80;21228;-57
2021/07/17 02:06:17;;;;;;;22.10;15.95;;;;;;;22.41;78.45;100220.70;1770884;80;21216;-58
2021/07/17 02:09:23;;;;;;;28.65;16.60;;;;;;;22.40;78.30;100231.58;1770539;80;21256;-58
2021/07/17 02:12:28;;;;;;;23.20;16.52;;;;;;;22.35;78.37;100223.98;1770389;80;21153;-58
2021/07/17 02:15:33;;;;;;;21.90;16.75;;;;;;;22.35;78.53;100226.78;1771024;80;21709;-59
2021/07/17 02:18:41;;;;;;;24.07;18.45;;;;;;;22.34;78.55;100230.68;1770447;80;21734;-58
2021/07/17 02:21:46;;;;;;;22.20;18.90;;;;;;;22.31;78.45;100224.19;1770241;81;21201;-58
2021/07/17 02:24:55;;;;;;;26.85;18.98;;;;;;;22.29;78.62;100226.95;1770916;81;21220;-58
2021/07/17 02:28:00;;;;;;;28.98;18.50;;;;;;;22.29;78.67;100229.20;1771010;80;21243;-59
2021/07/17 02:31:06;;;;;;;27.52;18.20;;;;;;;22.32;78.63;100231.48;1770981;80;21868;-58
2021/07/17 02:34:12;;;;;;;25.80;18.37;;;;;;;22.36;78.58;100242.98;1772773;80;21224;-58
2021/07/17 02:37:18;;;;;;;24.70;17.57;;;;;;;22.40;78.57;100245.53;1772928;80;21205;-58
2021/07/17 02:40:24;;;;;;;19.05;16.15;;;;;;;22.42;78.51;100257.29;1772607;80;21204;-58
2021/07/17 02:43:29;;;;;;;24.87;17.10;;;;;;;22.47;78.43;100256.80;1773084;80;21213;-58
2021/07/17 02:46:34;;;;;;;24.80;18.25;;;;;;;22.53;78.36;100257.77;1772939;80;21213;-58
2021/07/17 02:49:40;;;;;;;21.70;15.85;;;;;;;22.59;78.18;100265.96;1772804;80;21213;-58
2021/07/17 02:52:45;;;;;;;19.00;16.45;;;;;;;22.66;78.03;100265.20;1772751;80;21390;-58
2021/07/17 02:55:52;;;;;;;22.22;16.32;;;;;;;22.72;77.86;100256.38;1772942;80;21244;-58
2021/07/17 02:58:58;;;;;;;17.12;15.20;;;;;;;22.78;77.70;100263.17;1773764;80;21244;-58
2021/07/17 03:02:04;;;;;;;19.07;15.45;;;;;;;22.82;77.53;100260.13;1773090;80;21193;-57
2021/07/17 03:05:09;;;;;;;22.87;16.85;;;;;;;22.86;77.42;100266.91;1772953;81;21697;-58
2021/07/17 03:08:19;;;;;;;18.92;15.78;;;;;;;22.91;77.32;100266.12;1773077;80;21430;-58
2021/07/17 03:11:21;;;;;;;22.48;17.12;;;;;;;22.93;77.25;100258.34;1773473;80;21299;-58
2021/07/17 03:14:25;;;;;;;20.10;15.90;;;;;;;22.98;77.17;100255.59;1772985;80;21225;-58
2021/07/17 03:17:33;;;;;;;22.70;16.80;;;;;;;23.02;77.16;100256.23;1772520;80;21161;-58
2021/07/17 03:20:40;;;;;;;19.45;16.48;;;;;;;23.09;77.12;100257.41;1773230;80;21193;-58
2021/07/17 03:23:46;;;;;;;21.05;17.60;;;;;;;23.14;77.00;100251.89;1773566;80;21686;-57
2021/07/17 03:26:54;;;;;;;22.30;17.60;;;;;;;23.18;76.92;100255.87;1773422;80;21208;-58
2021/07/17 03:30:00;;;;;;;24.95;20.32;;;;;;;23.21;77.00;100260.35;1774368;80;21260;-57
2021/07/17 03:33:05;;;;;;;25.37;18.30;;;;;;;23.30;77.05;100249.61;1770825;78;21240;-56
2021/07/17 03:36:11;;;;;;;25.60;16.90;;;;;;;23.34;77.12;100247.99;1771119;80;21560;-57
2021/07/17 03:39:18;;;;;;;21.42;17.15;;;;;;;23.40;77.03;100246.94;1762509;80;21237;-57
2021/07/17 03:42:23;;;;;;;19.90;15.68;;;;;;;23.47;76.87;100251.20;1770701;80;21555;-57
2021/07/17 03:45:30;;;;;;;21.23;16.25;;;;;;;23.54;76.70;100249.60;1771058;80;21672;-57
2021/07/17 03:48:36;;;;;;;17.57;15.03;;;;;;;23.61;76.52;100247.42;1770957;80;21733;-57
2021/07/17 03:51:41;;;;;;;16.27;14.28;;;;;;;23.68;76.41;100243.87;1765097;80;21763;-57
2021/07/17 03:54:46;;;;;;;22.93;15.05;;;;;;;23.76;76.35;100239.20;1770346;80;21174;-58
2021/07/17 03:57:51;;;;;;;16.48;14.30;;;;;;;23.85;76.29;100240.39;1771024;80;21570;-57
2021/07/17 04:00:56;;;;;;;19.98;15.38;;;;;;;23.97;76.13;100244.45;1770428;80;21181;-58
2021/07/17 04:04:03;;;;;;;17.00;14.75;;;;;;;24.05;75.88;100236.97;1770452;80;21213;-58
2021/07/17 04:07:09;;;;;;;18.12;14.40;;;;;;;24.13;75.56;100244.33;1770884;80;21245;-58
2021/07/17 04:10:18;;;;;;;20.08;15.03;;;;;;;24.23;75.50;100235.99;1781820;79;21181;-57
2021/07/17 04:13:23;;;;;;;16.17;14.28;;;;;;;24.34;75.24;100236.35;1802043;79;21339;-56
2021/07/17 04:16:30;;;;;;;15.93;14.28;;;;;;;24.41;74.97;100241.72;1794851;79;21272;-57
2021/07/17 04:19:36;;;;;;;17.35;15.55;;;;;;;24.46;74.90;100246.81;1803348;79;21717;-57
2021/07/17 04:22:43;;;;;;;17.95;14.85;;;;;;;24.52;74.73;100243.47;1802275;79;21209;-59
2021/07/17 04:25:49;;;;;;;15.98;13.90;;;;;;;24.59;74.75;100243.52;1802635;79;21322;-58
2021/07/17 04:28:55;;;;;;;16.35;14.60;;;;;;;24.68;74.65;100241.09;1802830;79;21844;-57
2021/07/17 04:32:02;;;;;;;17.65;14.28;;;;;;;24.78;74.80;100246.17;1801417;79;21840;-58
2021/07/17 04:35:13;;;;;;;19.35;14.07;;;;;;;24.90;74.73;100246.82;1802302;79;21241;-59
2021/07/17 04:38:21;;;;;;;16.90;15.15;;;;;;;25.00;74.19;100246.87;1802511;79;21337;-58
2021/07/17 04:41:27;;;;;;;18.60;15.20;;;;;;;25.10;74.07;100243.27;1802355;79;21315;-57
2021/07/17 04:44:33;;;;;;;18.15;14.33;;;;;;;25.20;73.83;100244.70;1802548;79;21188;-57
2021/07/17 04:47:40;;;;;;;17.42;14.73;;;;;;;25.30;73.31;100243.89;1802470;79;21312;-57
2021/07/17 04:50:47;;;;;;;17.55;14.70;;;;;;;25.34;72.45;100240.87;1802351;79;21225;-59
2021/07/17 04:53:53;;;;;;;17.67;14.35;;;;;;;25.39;72.04;100243.66;1802398;79;21202;-57
2021/07/17 04:57:00;;;;;;;17.23;14.33;;;;;;;25.44;71.87;100241.73;1802565;79;21868;-57
2021/07/17 05:00:06;;;;;;;16.07;14.38;;;;;;;25.51;71.66;100239.52;1802435;79;21328;-59
2021/07/17 05:03:13;;;;;;;16.52;14.38;;;;;;;25.59;71.19;100236.72;1794111;79;21407;-58
2021/07/17 05:06:19;;;;;;;17.90;14.30;;;;;;;25.62;70.94;100234.21;1770670;80;21268;-57
2021/07/17 05:09:25;;;;;;;19.10;15.13;;;;;;;25.66;70.72;100230.27;1770661;80;21323;-57
2021/07/17 05:12:34;;;;;;;16.48;14.78;;;;;;;25.72;70.47;100224.39;1775410;79;21256;-58
2021/07/17 05:15:39;;;;;;;18.70;14.95;;;;;;;25.79;70.37;100226.38;1770475;80;21177;-57
2021/07/17 05:18:44;;;;;;;16.25;13.88;;;;;;;25.86;70.12;100221.89;1770627;80;21288;-58
2021/07/17 05:21:54;;;;;;;16.12;14.43;;;;;;;25.91;70.30;100220.50;1770765;80;21189;-58
2021/07/17 05:25:01;;;;;;;16.42;13.95;;;;;;;25.99;70.12;100218.55;1770857;80;21784;-59
2021/07/17 05:28:08;;;;;;;24.95;14.87;;;;;;;26.09;69.83;100220.80;1770887;80;21776;-57
2021/07/17 05:31:16;;;;;;;17.25;14.47;;;;;;;26.19;69.63;100218.55;1770773;80;21205;-58
2021/07/17 05:34:22;;;;;;;19.00;13.48;;;;;;;26.27;69.04;100220.80;1775534;78;21188;-57
2021/07/17 05:37:30;;;;;;;16.57;13.75;;;;;;;26.34;68.62;100219.92;1771481;80;21216;-58
2021/07/17 05:40:39;;;;;;;17.80;14.13;;;;;;;26.41;68.68;100224.15;1771118;80;21177;-58
2021/07/17 05:43:46;;;;;;;14.83;13.20;;;;;;;26.55;68.26;100224.94;1771460;80;21217;-57
2021/07/17 05:46:52;;;;;;;16.75;14.50;;;;;;;26.64;68.08;100223.26;1770903;80;21201;-59
2021/07/17 05:50:02;;;;;;;20.20;14.18;;;;;;;26.71;67.73;100231.69;1770852;80;21204;-59
2021/07/17 05:53:16;;;;;;;18.00;13.85;;;;;;;26.77;67.30;100234.76;1770513;81;21217;-56
2021/07/17 05:56:23;;;;;;;16.25;14.53;;;;;;;26.85;66.81;100231.36;1770153;81;21221;-56
2021/07/17 05:59:32;;;;;;;16.70;13.38;;;;;;;26.93;66.71;100229.37;1770237;79;21299;-57
2021/07/17 06:02:39;;;;;;;15.20;13.03;;;;;;;27.04;65.96;100230.16;1770306;81;21264;-58
2021/07/17 06:05:45;;;;;;;19.73;13.83;;;;;;;27.10;65.76;100231.26;1770472;81;21193;-58
2021/07/17 06:08:52;;;;;;;14.58;12.75;;;;;;;27.17;65.33;100236.58;1770359;79;21765;-57
2021/07/17 06:11:58;;;;;;;17.67;13.20;;;;;;;27.24;64.99;100233.72;1769918;80;21216;-58
2021/07/17 06:15:04;;;;;;;19.60;12.20;;;;;;;27.33;64.48;100234.85;1771691;79;21336;-57
2021/07/17 06:18:10;;;;;;;14.75;11.55;;;;;;;27.40;63.94;100233.13;1769867;80;21216;-60
2021/07/17 06:21:16;;;;;;;13.28;11.05;;;;;;;27.45;62.89;100233.92;1769999;80;21162;-58
2021/07/17 06:24:21;;;;;;;16.30;11.28;;;;;;;27.55;62.54;100233.03;1770066;81;21195;-57
2021/07/17 06:27:27;;;;;;;21.25;11.45;;;;;;;27.64;62.33;100225.09;1770711;81;21209;-58
2021/07/17 06:30:35;;;;;;;14.55;11.40;;;;;;;27.72;62.37;100234.32;1771377;80;21724;-58
2021/07/17 06:33:44;;;;;;;12.78;11.25;;;;;;;27.80;62.14;100229.48;1771063;80;21520;-59
2021/07/17 06:36:54;;;;;;;16.93;11.43;;;;;;;27.90;61.56;100227.75;1770404;80;21761;-58
2021/07/17 06:40:00;;;;;;;14.50;11.53;;;;;;;27.95;61.71;100220.68;1770577;80;21189;-58
2021/07/17 06:43:06;;;;;;;16.80;11.55;;;;;;;28.03;61.57;100220.05;1770796;79;21193;-60
2021/07/17 06:46:11;;;;;;;13.58;10.85;;;;;;;28.11;60.65;100224.50;1798064;79;21252;-58
2021/07/17 06:49:18;;;;;;;16.48;11.88;;;;;;;28.21;60.10;100220.16;1802668;79;21296;-57
2021/07/17 06:52:24;;;;;;;13.15;11.75;;;;;;;28.29;59.58;100221.52;1802114;79;21367;-57
2021/07/17 06:55:32;;;;;;;12.10;10.88;;;;;;;28.35;59.17;100223.97;1802321;79;21233;-58
2021/07/17 06:58:38;;;;;;;15.75;11.30;;;;;;;28.42;59.49;100219.40;1801999;79;21808;-58
2021/07/17 07:01:44;;;;;;;11.53;10.32;;;;;;;28.52;59.16;100213.14;1802301;79;21331;-59
2021/07/17 07:04:52;;;;;;;15.10;11.68;;;;;;;28.60;58.16;100215.31;1802208;79;21316;-59
2021/07/17 07:07:57;;;;;;;14.83;12.25;;;;;;;28.65;58.22;100210.19;1801891;79;21398;-59
2021/07/17 07:11:05;;;;;;;15.40;11.70;;;;;;;28.70;57.83;100212.37;1802272;79;21860;-61
2021/07/17 07:14:15;;;;;;;12.80;11.03;;;;;;;28.81;57.68;100215.92;1802128;79;21343;-58
2021/07/17 07:17:25;;;;;;;14.85;10.68;;;;;;;28.90;57.33;100214.13;1782980;79;21359;-58
2021/07/17 07:20:36;;;;;;;13.60;11.57;;;;;;;28.96;57.36;100215.73;1770585;80;21413;-58
2021/07/17 07:23:41;;;;;;;14.25;11.15;;;;;;;29.04;56.86;100210.84;1764996;79;21467;-58
2021/07/17 07:26:47;;;;;;;15.10;11.12;;;;;;;29.08;56.68;100209.14;1770447;80;21201;-60
2021/07/17 07:29:54;;;;;;;13.03;11.70;;;;;;;29.15;57.47;100209.59;1735226;82;21729;-59
2021/07/17 07:32:59;;;;;;;13.62;12.07;;;;;;;29.23;56.73;100215.98;1770848;80;21275;-59
2021/07/17 07:36:05;;;;;;;13.58;11.93;;;;;;;29.26;56.62;100206.91;1770108;80;21865;-58
2021/07/17 07:39:13;;;;;;;14.03;12.55;;;;;;;29.33;56.99;100211.62;1771973;80;21275;-59
2021/07/17 07:42:18;;;;;;;14.25;12.20;;;;;;;29.41;56.82;100203.89;1769984;80;21363;-58
2021/07/17 07:45:23;;;;;;;15.53;12.55;;;;;;;29.58;57.01;100204.20;1735371;82;21338;-59
2021/07/17 07:48:30;;;;;;;15.50;11.95;;;;;;;29.58;57.01;100204.20;1770572;80;21228;-58
2021/07/17 07:51:36;;;;;;;16.85;12.40;;;;;;;29.65;56.96;100204.70;1769569;80;21242;-57
2021/07/17 07:54:45;;;;;;;12.75;11.00;;;;;;;29.72;56.52;100199.48;1734964;82;21223;-60
2021/07/17 07:57:53;;;;;;;17.15;11.65;;;;;;;29.77;55.40;100201.39;1774137;79;21247;-57
2021/07/17 08:00:58;;;;;;;13.08;11.20;;;;;;;29.78;55.19;100203.91;1802212;79;21386;-58
2021/07/17 08:04:06;;;;;;;12.00;10.68;;;;;;;29.82;55.01;100199.34;1800978;79;21390;-60
2021/07/17 08:07:11;;;;;;;12.33;10.40;;;;;;;29.87;54.33;100203.50;1800028;79;21897;-58
2021/07/17 08:10:19;;;;;;;13.03;10.48;;;;;;;29.93;53.56;100191.53;1771125;80;21249;-58
2021/07/17 08:13:28;;;;;;;14.03;10.08;;;;;;;29.98;53.62;100183.83;1771168;80;21224;-57
2021/07/17 08:16:36;;;;;;;11.83;10.15;;;;;;;30.07;53.15;100190.44;1770679;81;21190;-59
2021/07/17 08:19:42;;;;;;;13.55;10.43;;;;;;;30.17;53.73;100181.80;1788346;79;21277;-60
2021/07/17 08:22:48;;;;;;;12.30;11.00;;;;;;;30.17;53.73;100181.80;1801926;79;21324;-58
2021/07/17 08:25:56;;;;;;;11.53;10.23;;;;;;;30.28;53.44;100183.33;1802114;79;21690;-59
2021/07/17 08:29:04;;;;;;;14.00;10.13;;;;;;;30.39;51.93;100187.64;1803387;79;21879;-56
2021/07/17 08:32:11;;;;;;;16.50;10.28;;;;;;;30.43;51.04;100191.50;1802422;79;21351;-56
2021/07/17 08:35:17;;;;;;;10.58;9.45;;;;;;;30.50;51.34;100187.71;1802588;79;21806;-59
2021/07/17 08:38:24;;;;;;;11.35;10.25;;;;;;;30.63;51.29;100181.24;1787942;79;21174;-58
2021/07/17 08:41:34;;;;;;;12.25;10.03;;;;;;;30.76;50.60;100181.55;1802101;79;21848;-58
2021/07/17 08:44:41;;;;;;;14.00;10.40;;;;;;;30.82;50.05;100180.33;1802555;79;21781;-58
2021/07/17 08:47:49;;;;;;;12.33;10.48;;;;;;;30.87;50.02;100180.22;1802169;79;21343;-58
2021/07/17 08:50:55;;;;;;;14.35;9.73;;;;;;;30.92;49.69;100182.95;1802588;79;21398;-60
2021/07/17 08:54:01;;;;;;;14.50;11.03;;;;;;;30.95;49.71;100178.92;1802725;79;21335;-60
2021/07/17 08:57:09;;;;;;;12.05;10.20;;;;;;;31.02;49.13;100178.47;1798112;79;21302;-58
2021/07/17 09:00:26;;;;;;;12.40;10.00;;;;;;;31.07;49.81;100171.30;1801863;79;21178;-57
2021/07/17 09:03:33;;;;;;;12.88;10.78;;;;;;;31.12;48.64;100167.80;1802216;79;22018;-60
2021/07/17 09:06:39;;;;;;;15.48;10.25;;;;;;;31.17;48.75;100176.74;1785275;79;21347;-60
2021/07/17 09:09:44;;;;;;;13.43;10.32;;;;;;;31.23;48.90;100165.57;1773119;79;21776;-57
2021/07/17 09:12:51;;;;;;;14.23;9.93;;;;;;;31.34;49.26;100173.55;1777561;79;21958;-59
2021/07/17 09:16:03;;;;;;;11.05;9.68;;;;;;;31.40;48.38;100171.42;1800295;79;21181;-59
2021/07/17 09:19:13;;;;;;;12.88;9.88;;;;;;;31.39;46.33;100169.77;1802212;79;21417;-57
2021/07/17 09:22:20;;;;;;;13.65;9.65;;;;;;;31.43;47.29;100167.39;1801898;79;21378;-57
2021/07/17 09:25:26;;;;;;;14.63;9.08;;;;;;;31.46;47.18;100173.83;1802989;79;21845;-58
2021/07/17 09:28:34;;;;;;;17.48;10.23;;;;;;;31.55;47.83;100160.61;1796932;79;21340;-58
2021/07/17 09:31:42;;;;;;;10.88;9.88;;;;;;;31.63;47.63;100164.66;1802165;79;21351;-58
2021/07/17 09:34:48;;;;;;;14.28;10.38;;;;;;;31.59;48.28;100172.11;1801588;79;21320;-58
2021/07/17 09:37:54;;;;;;;12.65;10.32;;;;;;;31.48;48.86;100169.26;1802766;79;21328;-57
2021/07/17 09:41:07;;;;;;;11.68;10.18;;;;;;;31.44;49.38;100169.66;1795878;79;21331;-57
2021/07/17 09:44:15;;;;;;;11.05;9.85;;;;;;;31.57;49.21;100158.87;1794007;79;21343;-58
2021/07/17 09:47:31;;;;;;;11.97;10.03;;;;;;;31.72;48.78;100165.00;1787822;80;21303;-59
2021/07/17 09:50:41;;;;;;;10.93;9.30;;;;;;;31.77;48.87;100159.78;1770462;81;21753;-59
2021/07/17 09:53:53;;;;;;;14.63;9.55;;;;;;;31.88;48.99;100159.25;1770123;80;21194;-60
2021/07/17 09:56:57;;;;;;;10.63;9.63;;;;;;;32.11;47.10;100166.33;1770389;81;21241;-56
2021/07/17 10:00:24;;;;;;;13.40;9.23;;;;;;;32.22;47.28;100152.98;1730332;81;21200;-61
2021/07/17 10:03:31;;;;;;;10.90;9.33;;;;;;;32.27;46.73;100149.99;1770782;80;21827;-58
2021/07/17 10:06:41;;;;;;;12.40;9.45;;;;;;;32.37;46.88;100147.50;1763785;81;21244;-58
2021/07/17 10:09:49;;;;;;;13.53;9.40;;;;;;;32.45;46.04;100141.03;1770926;81;21300;-57
2021/07/17 10:12:56;;;;;;;9.68;8.33;;;;;;;32.53;45.76;100145.34;1770361;79;21777;-59
2021/07/17 10:16:03;;;;;;;10.13;9.03;;;;;;;32.61;45.12;100150.22;1770665;81;21188;-58
2021/07/17 10:19:10;;;;;;;9.75;8.73;;;;;;;32.62;45.31;100151.88;1763846;80;21786;-58
2021/07/17 10:22:19;;;;;;;9.00;8.15;;;;;;;32.75;44.83;100149.52;1773237;79;21179;-60
2021/07/17 10:25:24;;;;;;;10.00;7.95;;;;;;;32.88;44.00;100145.77;1761851;81;21239;-58
2021/07/17 10:28:31;;;;;;;12.45;7.90;;;;;;;33.07;43.64;100142.07;1760880;81;21216;-59
2021/07/17 10:31:37;;;;;;;9.15;7.97;;;;;;;33.23;43.57;100143.84;1746231;81;21346;-59
2021/07/17 10:34:44;;;;;;;8.43;7.65;;;;;;;33.30;42.98;100142.79;1761440;81;21346;-60
2021/07/17 10:37:56;;;;;;;9.50;7.42;;;;;;;33.17;42.61;100134.64;1766885;79;21181;-58
2021/07/17 10:41:01;;;;;;;9.23;7.67;;;;;;;33.10;42.96;100127.22;1782325;79;21296;-58
2021/07/17 10:44:07;;;;;;;8.45;7.45;;;;;;;33.30;42.42;100128.59;1801786;79;21331;-57
2021/07/17 10:47:14;;;;;;;12.65;8.38;;;;;;;33.44;41.66;100125.62;1802056;79;21944;-59
2021/07/17 10:50:23;;;;;;;8.88;7.97;;;;;;;33.57;41.37;100125.44;1795033;79;21322;-60
2021/07/17 10:53:58;;;;;;;9.53;7.97;;;;;;;33.53;41.64;100129.28;1795032;79;21841;-58
2021/07/17 10:57:07;;;;;;;11.15;8.08;;;;;;;33.34;42.21;100129.59;1802269;79;21398;-60
2021/07/17 11:00:14;;;;;;;10.15;7.60;;;;;;;33.21;42.10;100125.73;1802099;79;21367;-58
2021/07/17 11:03:32;;;;;;;9.28;7.33;;;;;;;33.20;41.92;100113.30;1802014;79;21260;-59
2021/07/17 11:06:43;;;;;;;14.35;7.62;;;;;;;33.10;41.87;100116.44;1802216;78;21177;-58
2021/07/17 11:10:00;;;;;;;8.80;7.90;;;;;;;33.04;42.23;100113.52;1795079;79;21198;-57
2021/07/17 11:13:08;;;;;;;9.60;8.10;;;;;;;33.04;42.08;100114.36;1794212;79;21256;-57
2021/07/17 11:16:14;;;;;;;11.35;7.70;;;;;;;33.22;41.70;100098.20;1801943;79;21186;-58
2021/07/17 11:19:31;;;;;;;12.60;7.72;;;;;;;33.42;42.03;100099.56;1802093;79;21370;-59
2021/07/17 11:22:36;;;;;;;10.72;7.87;;;;;;;33.58;39.90;100093.63;1802354;79;21328;-59
2021/07/17 11:25:42;;;;;;;8.28;6.78;;;;;;;33.71;39.16;100084.95;1776180;79;21316;-58
2021/07/17 11:29:06;;;;;;;12.60;8.23;;;;;;;33.92;38.72;100080.86;1801754;79;21351;-57
2021/07/17 11:32:10;;;;;;;8.53;7.58;;;;;;;33.99;38.12;100081.16;1801773;79;21305;-59
2021/07/17 11:35:19;;;;;;;10.08;8.05;;;;;;;33.93;38.51;100085.35;1801788;79;21201;-58
2021/07/17 11:38:24;;;;;;;8.68;7.33;;;;;;;33.95;39.15;100070.23;1801812;79;21343;-58
2021/07/17 11:41:35;;;;;;;8.68;7.75;;;;;;;34.04;39.04;100083.25;1800858;78;21757;-57
2021/07/17 11:44:45;;;;;;;10.45;7.30;;;;;;;33.86;38.55;100072.20;1802495;79;21726;-58
2021/07/17 11:47:50;;;;;;;9.63;7.87;;;;;;;33.65;39.40;100066.39;1802455;79;21209;-57
2021/07/17 11:50:57;;;;;;;9.40;8.13;;;;;;;33.43;39.46;100072.86;1802197;79;21774;-58
2021/07/17 11:54:07;;;;;;;8.13;7.33;;;;;;;33.27;40.03;100064.80;1794886;79;21335;-58
2021/07/17 11:57:17;;;;;;;11.73;8.28;;;;;;;33.43;40.09;100058.66;1780709;79;21245;-59
2021/07/17 12:00:28;;;;;;;9.60;8.60;;;;;;;33.62;39.83;100049.22;1770856;80;21360;-58
2021/07/17 12:03:35;;;;;;;11.28;8.00;;;;;;;33.80;39.13;100042.31;1770943;80;21228;-58
2021/07/17 12:06:43;;;;;;;9.55;8.18;;;;;;;33.95;39.05;100044.66;1770736;81;21197;-60
2021/07/17 12:09:58;;;;;;;10.95;7.58;;;;;;;34.17;39.63;100050.11;1770470;81;21198;-58
2021/07/17 12:13:09;;;;;;;9.38;6.95;;;;;;;34.24;39.58;100060.34;1770789;80;21769;-58
2021/07/17 12:16:30;;;;;;;13.95;7.20;;;;;;;34.01;39.99;100059.77;1770519;80;21225;-61
2021/07/17 12:19:35;;;;;;;15.32;7.40;;;;;;;33.84;40.73;100058.95;1770601;81;21276;-59
2021/07/17 12:22:40;;;;;;;13.35;6.78;;;;;;;33.84;42.39;100053.27;1770526;81;21232;-60
2021/07/17 12:25:49;;;;;;;12.68;8.73;;;;;;;33.60;43.26;100059.48;1763197;81;21938;-58
2021/07/17 12:28:55;;;;;;;11.85;8.18;;;;;;;33.21;43.65;100051.10;1770785;80;21730;-57
2021/07/17 12:32:10;;;;;;;15.05;8.45;;;;;;;32.87;44.08;100040.52;1770755;80;21189;-56
2021/07/17 12:35:16;;;;;;;17.17;7.72;;;;;;;32.74;44.42;100044.92;1770873;81;21170;-58
2021/07/17 12:38:33;;;;;;;9.55;7.78;;;;;;;32.69;44.31;100057.27;1770909;81;21208;-58
2021/07/17 12:41:40;;;;;;;15.18;8.33;;;;;;;32.82;43.20;100059.70;1771491;79;21242;-57
2021/07/17 12:44:48;;;;;;;12.20;7.62;;;;;;;32.94;40.86;100045.16;1771466;80;21351;-58
2021/07/17 12:48:00;;;;;;;15.18;8.20;;;;;;;33.06;41.17;100038.84;1769548;80;21279;-58
2021/07/17 12:51:14;;;;;;;13.35;7.42;;;;;;;33.11;41.65;100062.80;1770352;80;21936;-57
2021/07/17 12:54:21;;;;;;;10.80;8.00;;;;;;;33.08;41.22;100054.92;1770404;80;21218;-58
2021/07/17 12:57:27;;;;;;;8.73;7.30;;;;;;;32.86;42.22;100062.12;1770396;80;21347;-56
2021/07/17 13:00:37;;;;;;;17.80;8.33;;;;;;;32.52;43.86;100084.15;1771052;80;21296;-58
2021/07/17 13:03:44;;;;;;;14.23;8.23;;;;;;;32.13;46.30;100074.77;1770290;80;21746;-57
2021/07/17 13:06:49;;;;;;;14.00;7.92;;;;;;;31.83;47.47;100064.47;1784819;79;21838;-58
2021/07/17 13:09:58;;;;;;;11.20;8.58;;;;;;;31.61;49.18;100048.08;1801769;79;22135;-59
2021/07/17 13:13:04;;;;;;;12.75;8.18;;;;;;;31.49;49.97;100037.33;1802330;79;21711;-58
2021/07/17 13:16:11;;;;;;;11.48;7.75;;;;;;;31.52;50.92;100044.36;1775299;79;21594;-58
2021/07/17 13:19:17;;;;;;;12.53;8.20;;;;;;;31.65;50.49;100047.11;1802809;79;21202;-56
2021/07/17 13:22:24;;;;;;;13.80;8.95;;;;;;;31.81;50.30;100045.55;1802226;79;21316;-56
2021/07/17 13:25:31;;;;;;;19.07;8.93;;;;;;;32.00;49.48;100043.93;1802601;79;21335;-57
2021/07/17 13:28:36;;;;;;;8.80;7.33;;;;;;;32.19;48.61;100045.94;1774141;79;21220;-59
2021/07/17 13:31:42;;;;;;;13.58;8.28;;;;;;;32.30;45.78;100049.34;1770341;80;21798;-57
2021/07/17 13:34:49;;;;;;;10.80;8.63;;;;;;;32.39;45.81;100044.56;1770643;81;21228;-57
2021/07/17 13:38:18;;;;;;;11.50;8.58;;;;;;;32.47;45.71;100040.35;1770405;80;21221;-57
2021/07/17 13:41:23;;;;;;;9.98;7.80;;;;;;;32.58;45.23;100041.72;1770362;80;21867;-57
2021/07/17 13:44:28;;;;;;;8.20;7.05;;;;;;;32.72;44.64;100048.66;1771953;78;21217;-57
2021/07/17 13:47:42;;;;;;;11.73;6.85;;;;;;;32.86;43.58;100047.36;1745265;79;21296;-58
2021/07/17 13:50:51;;;;;;;10.80;7.40;;;;;;;33.02;43.17;100047.75;1772049;80;21335;-58
2021/07/17 13:53:58;;;;;;;10.70;7.28;;;;;;;33.09;42.17;100047.50;1772182;80;21190;-60
2021/07/17 13:57:04;;;;;;;10.63;7.33;;;;;;;33.03;41.96;100063.63;1764962;80;21841;-60
2021/07/17 14:00:22;;;;;;;11.00;8.10;;;;;;;32.99;41.73;100060.61;1772759;80;21872;-59
2021/07/17 14:03:36;;;;;;;8.95;7.67;;;;;;;32.85;42.54;100051.95;1772413;80;21355;-60
2021/07/17 14:06:41;;;;;;;16.12;7.33;;;;;;;32.56;43.85;100060.20;1771926;80;21316;-60
2021/07/17 14:09:54;;;;;;;10.43;8.05;;;;;;;32.26;45.13;100071.81;1772070;80;21358;-59
2021/07/17 14:13:02;;;;;;;12.07;7.85;;;;;;;31.97;45.85;100062.42;1773715;79;21366;-59
2021/07/17 14:16:09;;;;;;;14.55;7.45;;;;;;;31.77;46.19;100059.27;1771906;80;21355;-60